Time;durP1;ratioP1;P1;durP2;ratioP2;P2;SDS_P1;SDS_P2;PMS_P1;PMS_P2;Temp;Humidity;BMP_temperature;BMP_pressure;BME280_temperature;BME280_humidity;BME280_pressure;Samples;Min_cycle;Max_cycle;Signal;HPM_P1;HPM_P2
2022/10/24 00:00:44;;;;;;;0.15;0.15;;;;;;;;;;6256673;22;20022;-94
2022/10/24 00:03:12;;;;;;;0.20;0.20;;;;;;;;;;6256318;22;20018;-96
2022/10/24 00:05:41;;;;;;;0.20;0.20;;;;;;;;;;6256358;22;20007;-95
2022/10/24 00:08:07;;;;;;;0.10;0.10;;;;;;;;;;6256783;22;20011;-95
2022/10/24 00:10:35;;;;;;;0.10;0.10;;;;;;;;;;6260552;22;20011;-95
2022/10/24 00:13:01;;;;;;;0.10;0.10;;;;;;;;;;6256949;22;20014;-94
2022/10/24 00:15:27;;;;;;;0.10;0.10;;;;;;;;;;6256715;22;20017;-96
2022/10/24 00:17:53;;;;;;;0.10;0.10;;;;;;;;;;6256009;22;20011;-95
2022/10/24 00:20:22;;;;;;;0.10;0.10;;;;;;;;;;6282711;22;20011;-95
2022/10/24 00:22:48;;;;;;;0.10;0.10;;;;;;;;;;6255997;22;20029;-94
2022/10/24 00:25:14;;;;;;;0.10;0.10;;;;;;;;;;6256026;22;20024;-95
2022/10/24 00:27:40;;;;;;;0.10;0.10;;;;;;;;;;6256218;22;20018;-95
2022/10/24 00:30:07;;;;;;;0.10;0.10;;;;;;;;;;6256452;22;20011;-95
2022/10/24 00:32:33;;;;;;;0.10;0.10;;;;;;;;;;6256375;22;20011;-95
2022/10/24 00:34:59;;;;;;;0.10;0.10;;;;;;;;;;6257744;22;20014;-95
2022/10/24 00:37:25;;;;;;;0.10;0.10;;;;;;;;;;6258082;22;20018;-95
2022/10/24 00:39:51;;;;;;;0.10;0.10;;;;;;;;;;6275861;22;20288;-96
2022/10/24 00:42:17;;;;;;;0.10;0.10;;;;;;;;;;6283344;22;20063;-95
2022/10/24 00:44:43;;;;;;;0.10;0.10;;;;;;;;;;6271243;22;20015;-95
2022/10/24 00:47:13;;;;;;;0.20;0.20;;;;;;;;;;6257754;22;20007;-96
2022/10/24 00:49:43;;;;;;;0.10;0.10;;;;;;;;;;6275033;22;20018;-96
2022/10/24 00:52:10;;;;;;;0.20;0.20;;;;;;;;;;6283006;22;20037;-96
2022/10/24 00:54:38;;;;;;;0.20;0.20;;;;;;;;;;6288574;22;20011;-96
2022/10/24 00:57:07;;;;;;;0.10;0.10;;;;;;;;;;6256262;22;20030;-94
2022/10/24 00:59:34;;;;;;;0.10;0.10;;;;;;;;;;6281655;22;20007;-95
2022/10/24 01:02:21;;;;;;;0.20;0.20;;;;;;;;;;6255781;22;20061;-96
2022/10/24 01:05:00;;;;;;;;;;;;;;;;;;;;;
2022/10/24 01:07:31;;;;;;;0.10;0.10;;;;;;;;;;6284315;22;20060;-96
2022/10/24 01:10:16;;;;;;;0.10;0.10;;;;;;;;;;6256807;22;20012;-95
2022/10/24 01:12:57;;;;;;;0.10;0.10;;;;;;;;;;6280931;22;20047;-95
2022/10/24 01:15:38;;;;;;;0.10;0.10;;;;;;;;;;6281492;22;20094;-96
2022/10/24 01:18:20;;;;;;;0.10;0.10;;;;;;;;;;6256740;22;20011;-94
2022/10/24 01:21:01;;;;;;;0.20;0.20;;;;;;;;;;6281445;22;20021;-96
2022/10/24 01:23:30;;;;;;;0.10;0.10;;;;;;;;;;6281466;22;20019;-96
2022/10/24 01:25:59;;;;;;;0.10;0.10;;;;;;;;;;6287909;22;20436;-96
2022/10/24 01:28:27;;;;;;;0.10;0.10;;;;;;;;;;6259589;22;20030;-96
2022/10/24 01:31:04;;;;;;;0.10;0.10;;;;;;;;;;6260419;22;20066;-95
2022/10/24 01:33:31;;;;;;;0.10;0.10;;;;;;;;;;6255969;22;20090;-95
2022/10/24 01:36:06;;;;;;;0.10;0.10;;;;;;;;;;6256282;22;20015;-95
2022/10/24 01:38:38;;;;;;;0.10;0.10;;;;;;;;;;6257054;22;20015;-96
2022/10/24 01:41:11;;;;;;;0.10;0.10;;;;;;;;;;6258463;22;20008;-96
2022/10/24 01:44:06;;;;;;;0.10;0.10;;;;;;;;;;6266078;22;20417;-96
2022/10/24 01:46:38;;;;;;;0.10;0.10;;;;;;;;;;6233923;22;20015;-96
2022/10/24 01:49:31;;;;;;;0.20;0.20;;;;;;;;;;6260199;22;20007;-96
2022/10/24 01:52:00;;;;;;;0.20;0.20;;;;;;;;;;6287139;22;20177;-96
2022/10/24 01:54:26;;;;;;;0.10;0.10;;;;;;;;;;6256282;22;20374;-96
2022/10/24 01:57:04;;;;;;;0.10;0.10;;;;;;;;;;6255965;22;20046;-96
2022/10/24 01:59:33;;;;;;;0.10;0.10;;;;;;;;;;6256682;22;20131;-96
2022/10/24 02:02:04;;;;;;;0.10;0.10;;;;;;;;;;6280853;22;20015;-95
2022/10/24 02:04:33;;;;;;;0.10;0.10;;;;;;;;;;6280242;22;20015;-96
2022/10/24 02:07:00;;;;;;;0.20;0.20;;;;;;;;;;6255426;22;20011;-95
2022/10/24 02:09:36;;;;;;;;;;;;;;;;;;;;;
2022/10/24 02:12:06;;;;;;;0.30;0.30;;;;;;;;;;6284228;22;20011;-96
2022/10/24 02:14:36;;;;;;;0.10;0.10;;;;;;;;;;6256322;22;20462;-94
2022/10/24 02:17:02;;;;;;;0.10;0.10;;;;;;;;;;6255563;22;20066;-94
2022/10/24 02:19:28;;;;;;;0.10;0.10;;;;;;;;;;6255388;22;20019;-95
2022/10/24 02:22:03;;;;;;;0.10;0.10;;;;;;;;;;6255637;22;20007;-95
2022/10/24 02:24:42;;;;;;;0.20;0.20;;;;;;;;;;6255819;22;20011;-94
2022/10/24 02:27:15;;;;;;;0.10;0.10;;;;;;;;;;6256193;22;20011;-94
2022/10/24 02:29:42;;;;;;;0.10;0.10;;;;;;;;;;6255458;22;20011;-95
2022/10/24 02:32:12;;;;;;;0.43;0.43;;;;;;;;;;6255821;22;20026;-95
2022/10/24 02:34:38;;;;;;;0.10;0.10;;;;;;;;;;6255653;22;20282;-94
2022/10/24 02:37:04;;;;;;;0.20;0.20;;;;;;;;;;6255725;22;20417;-95
2022/10/24 02:39:30;;;;;;;0.85;0.22;;;;;;;;;;6255322;22;20096;-94
2022/10/24 02:41:56;;;;;;;0.10;0.10;;;;;;;;;;6255400;22;20007;-95
2022/10/24 02:44:22;;;;;;;0.10;0.10;;;;;;;;;;6255417;22;20094;-94
2022/10/24 02:46:48;;;;;;;0.10;0.10;;;;;;;;;;6255320;22;20015;-95
2022/10/24 02:49:14;;;;;;;0.10;0.10;;;;;;;;;;6255093;22;20011;-95
2022/10/24 02:51:41;;;;;;;0.95;0.38;;;;;;;;;;6255035;22;20049;-96
2022/10/24 02:54:10;;;;;;;0.10;0.10;;;;;;;;;;6255487;22;20019;-96
2022/10/24 02:56:36;;;;;;;0.20;0.20;;;;;;;;;;6279345;22;20011;-94
2022/10/24 02:59:02;;;;;;;0.10;0.10;;;;;;;;;;6255690;22;20015;-94
2022/10/24 03:01:28;;;;;;;0.10;0.10;;;;;;;;;;6255277;22;20015;-95
2022/10/24 03:03:54;;;;;;;0.10;0.10;;;;;;;;;;6255710;22;20090;-95
2022/10/24 03:06:21;;;;;;;0.10;0.10;;;;;;;;;;6254843;22;20008;-95
2022/10/24 03:08:47;;;;;;;0.20;0.20;;;;;;;;;;6230955;22;20015;-95
2022/10/24 03:11:13;;;;;;;0.10;0.10;;;;;;;;;;6255948;22;20019;-95
2022/10/24 03:13:39;;;;;;;0.20;0.20;;;;;;;;;;6281150;22;20046;-95
2022/10/24 03:16:05;;;;;;;0.10;0.10;;;;;;;;;;6254727;22;20015;-95
2022/10/24 03:18:34;;;;;;;0.10;0.10;;;;;;;;;;6279648;22;20080;-95
2022/10/24 03:21:00;;;;;;;0.10;0.10;;;;;;;;;;6256278;22;20433;-95
2022/10/24 03:23:27;;;;;;;0.10;0.10;;;;;;;;;;6256013;22;20022;-95
2022/10/24 03:25:54;;;;;;;0.20;0.20;;;;;;;;;;6256015;22;20100;-96
2022/10/24 03:28:20;;;;;;;0.10;0.10;;;;;;;;;;6255725;22;20007;-94
2022/10/24 03:30:47;;;;;;;0.10;0.10;;;;;;;;;;6255991;22;20042;-95
2022/10/24 03:33:13;;;;;;;0.10;0.10;;;;;;;;;;6254695;22;20007;-93
2022/10/24 03:35:39;;;;;;;0.10;0.10;;;;;;;;;;6255698;22;20050;-95
2022/10/24 03:38:07;;;;;;;0.20;0.20;;;;;;;;;;6255226;22;20019;-94
2022/10/24 03:40:35;;;;;;;0.10;0.10;;;;;;;;;;6256187;22;20011;-96
2022/10/24 03:43:01;;;;;;;0.10;0.10;;;;;;;;;;6255413;22;20019;-95
2022/10/24 03:45:40;;;;;;;0.10;0.10;;;;;;;;;;6255184;22;20444;-96
2022/10/24 03:48:06;;;;;;;0.35;0.30;;;;;;;;;;6257709;22;20011;-96
2022/10/24 03:50:32;;;;;;;0.10;0.10;;;;;;;;;;6256306;22;20471;-96
2022/10/24 03:52:58;;;;;;;0.10;0.10;;;;;;;;;;6255363;22;20436;-94
2022/10/24 03:55:25;;;;;;;0.20;0.20;;;;;;;;;;6255843;22;20012;-95
2022/10/24 03:57:51;;;;;;;0.20;0.20;;;;;;;;;;6256769;22;20090;-95
2022/10/24 04:00:18;;;;;;;0.10;0.10;;;;;;;;;;6256651;22;20011;-95
2022/10/24 04:02:53;;;;;;;0.20;0.20;;;;;;;;;;6257659;22;20046;-94
2022/10/24 04:05:19;;;;;;;0.10;0.10;;;;;;;;;;6258789;22;20011;-95
2022/10/24 04:07:58;;;;;;;0.10;0.10;;;;;;;;;;6260413;22;20046;-96
2022/10/24 04:10:27;;;;;;;0.20;0.20;;;;;;;;;;6259174;22;20011;-96
2022/10/24 04:13:23;;;;;;;0.20;0.20;;;;;;;;;;6284358;22;20046;-96
2022/10/24 04:15:58;;;;;;;0.10;0.10;;;;;;;;;;6287609;22;20019;-96
2022/10/24 04:18:24;;;;;;;0.10;0.10;;;;;;;;;;6268633;22;20022;-95
2022/10/24 04:20:50;;;;;;;0.10;0.10;;;;;;;;;;6276516;22;20015;-95
2022/10/24 04:23:16;;;;;;;0.10;0.10;;;;;;;;;;6276065;22;20022;-95
2022/10/24 04:25:43;;;;;;;0.10;0.10;;;;;;;;;;6275007;22;20018;-96
2022/10/24 04:28:09;;;;;;;0.10;0.10;;;;;;;;;;6273382;22;20064;-94
2022/10/24 04:30:44;;;;;;;0.15;0.15;;;;;;;;;;6272588;22;20057;-95
2022/10/24 04:33:10;;;;;;;0.10;0.10;;;;;;;;;;6272650;22;20429;-95
2022/10/24 04:35:37;;;;;;;0.20;0.20;;;;;;;;;;6268340;22;20018;-95
2022/10/24 04:38:03;;;;;;;0.10;0.10;;;;;;;;;;6271972;22;20012;-94
2022/10/24 04:41:12;;;;;;;0.17;0.17;;;;;;;;;;6270240;22;20011;-96
2022/10/24 04:43:35;;;;;;;0.20;0.20;;;;;;;;;;6321172;22;20106;-93
2022/10/24 04:46:01;;;;;;;0.10;0.10;;;;;;;;;;6272319;22;20015;-93
2022/10/24 04:48:27;;;;;;;0.10;0.10;;;;;;;;;;6274015;22;20012;-93
2022/10/24 04:50:53;;;;;;;0.15;0.15;;;;;;;;;;6270413;22;20038;-93
2022/10/24 04:53:19;;;;;;;0.10;0.10;;;;;;;;;;6275492;22;20011;-95
2022/10/24 04:55:55;;;;;;;;;;;;;;;;;;;;;
2022/10/24 04:59:01;;;;;;;;;;;;;;;;;;;;;
2022/10/24 05:01:27;;;;;;;0.10;0.10;;;;;;;;;;6330468;22;20056;-96
2022/10/24 05:03:53;;;;;;;0.22;0.22;;;;;;;;;;6275667;22;20025;-94
2022/10/24 05:06:19;;;;;;;0.10;0.10;;;;;;;;;;6272649;22;20015;-95
2022/10/24 05:08:48;;;;;;;0.32;0.32;;;;;;;;;;6272437;22;20011;-94
2022/10/24 05:11:16;;;;;;;0.20;0.20;;;;;;;;;;6271945;22;20069;-94
2022/10/24 05:17:00;;;;;;;0.10;0.10;;;;;;;;;;6298692;22;20033;-96
2022/10/24 05:19:26;;;;;;;0.20;0.20;;;;;;;;;;6282156;22;20023;-94
2022/10/24 05:22:00;;;;;;;0.10;0.10;;;;;;;;;;6256075;22;20151;-95
2022/10/24 05:24:26;;;;;;;0.10;0.10;;;;;;;;;;6257367;22;20047;-94
2022/10/24 05:26:52;;;;;;;0.10;0.10;;;;;;;;;;6259058;22;20113;-95
2022/10/24 05:29:18;;;;;;;0.10;0.10;;;;;;;;;;6257137;22;20424;-94
2022/10/24 05:31:44;;;;;;;0.10;0.10;;;;;;;;;;6257015;22;20096;-94
2022/10/24 05:34:12;;;;;;;0.10;0.10;;;;;;;;;;6256688;22;20026;-94
2022/10/24 05:36:38;;;;;;;0.10;0.10;;;;;;;;;;6256370;22;20011;-93
2022/10/24 05:39:04;;;;;;;0.10;0.10;;;;;;;;;;6255323;22;20069;-94
2022/10/24 05:41:31;;;;;;;0.20;0.20;;;;;;;;;;6255476;22;20050;-93
2022/10/24 05:43:57;;;;;;;0.10;0.10;;;;;;;;;;6255858;22;20023;-95
2022/10/24 05:46:23;;;;;;;0.10;0.10;;;;;;;;;;6255637;22;20018;-94
2022/10/24 05:48:49;;;;;;;0.10;0.10;;;;;;;;;;6256005;22;20090;-93
2022/10/24 05:51:15;;;;;;;0.10;0.10;;;;;;;;;;6256763;22;20022;-93
2022/10/24 05:53:41;;;;;;;0.20;0.20;;;;;;;;;;6256377;22;20046;-93
2022/10/24 05:56:07;;;;;;;0.20;0.20;;;;;;;;;;6256140;22;20022;-94
2022/10/24 05:58:33;;;;;;;0.10;0.10;;;;;;;;;;6255990;22;20100;-94
2022/10/24 06:00:59;;;;;;;0.10;0.10;;;;;;;;;;6255324;22;20018;-93
2022/10/24 06:03:25;;;;;;;0.10;0.10;;;;;;;;;;6255461;22;20056;-93
2022/10/24 06:05:51;;;;;;;0.10;0.10;;;;;;;;;;6256954;22;20428;-94
2022/10/24 06:08:18;;;;;;;0.10;0.10;;;;;;;;;;6281981;22;20012;-94
2022/10/24 06:10:47;;;;;;;0.10;0.10;;;;;;;;;;6255978;22;20046;-93
2022/10/24 06:18:56;;;;;;;0.10;0.10;;;;;;;;;;6285753;22;20034;-92
2022/10/24 06:21:22;;;;;;;0.10;0.10;;;;;;;;;;6199338;22;20251;-93
2022/10/24 06:23:48;;;;;;;0.10;0.10;;;;;;;;;;6199574;22;20011;-92
2022/10/24 06:26:14;;;;;;;0.20;0.20;;;;;;;;;;6199369;22;20068;-94
2022/10/24 06:28:40;;;;;;;0.10;0.10;;;;;;;;;;6200509;22;20031;-91
2022/10/24 06:31:07;;;;;;;0.10;0.10;;;;;;;;;;6200017;22;20012;-92
2022/10/24 06:33:33;;;;;;;0.10;0.10;;;;;;;;;;6199913;22;20019;-94
2022/10/24 06:36:04;;;;;;;0.10;0.10;;;;;;;;;;6199629;22;20012;-90
2022/10/24 06:38:33;;;;;;;0.10;0.10;;;;;;;;;;6248268;22;20319;-91
2022/10/24 06:40:59;;;;;;;0.10;0.10;;;;;;;;;;6198524;22;20037;-90
2022/10/24 06:43:26;;;;;;;0.10;0.10;;;;;;;;;;6198430;22;20117;-92
2022/10/24 06:45:52;;;;;;;0.10;0.10;;;;;;;;;;6199534;22;20425;-92
2022/10/24 06:48:18;;;;;;;0.10;0.10;;;;;;;;;;6199228;22;20095;-92
2022/10/24 06:50:44;;;;;;;0.10;0.10;;;;;;;;;;6199103;22;20018;-94
2022/10/24 06:53:10;;;;;;;0.10;0.10;;;;;;;;;;6199688;22;20018;-91
2022/10/24 06:55:39;;;;;;;0.10;0.10;;;;;;;;;;6198458;22;20016;-92
2022/10/24 06:58:05;;;;;;;0.10;0.10;;;;;;;;;;6199802;22;20537;-92
2022/10/24 07:00:38;;;;;;;0.10;0.10;;;;;;;;;;6199195;22;20015;-92
2022/10/24 07:03:04;;;;;;;0.10;0.10;;;;;;;;;;6201255;22;20012;-94
2022/10/24 07:05:30;;;;;;;0.10;0.10;;;;;;;;;;6199336;22;20046;-92
2022/10/24 07:07:56;;;;;;;0.20;0.20;;;;;;;;;;6198816;22;20015;-91
2022/10/24 07:10:22;;;;;;;0.10;0.10;;;;;;;;;;6223525;22;20341;-93
2022/10/24 07:12:48;;;;;;;0.10;0.10;;;;;;;;;;6199499;22;20022;-92
2022/10/24 07:15:14;;;;;;;2.00;0.50;;;;;;;;;;6199357;22;20012;-92
2022/10/24 07:17:42;;;;;;;0.10;0.10;;;;;;;;;;6199438;22;20202;-93
2022/10/24 07:20:09;;;;;;;0.10;0.10;;;;;;;;;;6249508;22;20341;-90
2022/10/24 07:22:35;;;;;;;0.17;0.17;;;;;;;;;;6248100;22;20015;-91
2022/10/24 07:25:02;;;;;;;0.30;0.30;;;;;;;;;;6249583;22;20368;-91
2022/10/24 07:27:28;;;;;;;0.10;0.10;;;;;;;;;;6248560;22;20011;-92
2022/10/24 07:29:54;;;;;;;0.10;0.10;;;;;;;;;;6249221;22;20329;-92
2022/10/24 07:32:20;;;;;;;0.20;0.20;;;;;;;;;;6249665;22;20468;-90
2022/10/24 07:34:46;;;;;;;0.10;0.10;;;;;;;;;;6249212;22;20098;-92
2022/10/24 07:37:13;;;;;;;0.10;0.10;;;;;;;;;;6222751;22;20019;-92
2022/10/24 07:39:39;;;;;;;0.10;0.10;;;;;;;;;;6248972;22;20023;-94
2022/10/24 07:42:06;;;;;;;0.10;0.10;;;;;;;;;;6248825;22;20012;-91
2022/10/24 07:44:32;;;;;;;0.10;0.10;;;;;;;;;;6249431;22;20073;-93
2022/10/24 07:46:58;;;;;;;0.10;0.10;;;;;;;;;;6249319;22;20019;-93
2022/10/24 07:49:24;;;;;;;0.10;0.10;;;;;;;;;;6249723;22;20012;-93
2022/10/24 07:51:50;;;;;;;0.10;0.10;;;;;;;;;;6249539;22;20051;-92
2022/10/24 07:54:16;;;;;;;0.10;0.10;;;;;;;;;;6249046;22;20341;-93
2022/10/24 07:56:42;;;;;;;0.10;0.10;;;;;;;;;;6249000;22;20016;-90
2022/10/24 07:59:08;;;;;;;0.10;0.10;;;;;;;;;;6248527;22;20011;-90
2022/10/24 08:01:34;;;;;;;0.10;0.10;;;;;;;;;;6249300;22;20302;-91
2022/10/24 08:04:00;;;;;;;0.10;0.10;;;;;;;;;;6250515;22;20061;-91
2022/10/24 08:06:29;;;;;;;0.20;0.20;;;;;;;;;;6252294;22;20008;-92
2022/10/24 08:08:56;;;;;;;1.38;0.22;;;;;;;;;;6251965;22;20016;-91
2022/10/24 08:11:23;;;;;;;0.22;0.22;;;;;;;;;;6251121;22;20090;-92
2022/10/24 08:13:49;;;;;;;0.10;0.10;;;;;;;;;;6250251;22;20023;-92
2022/10/24 08:16:15;;;;;;;0.10;0.10;;;;;;;;;;6251596;22;20101;-92
2022/10/24 08:18:41;;;;;;;0.10;0.10;;;;;;;;;;6252319;22;20016;-91
2022/10/24 08:21:08;;;;;;;0.13;0.13;;;;;;;;;;6253208;22;20012;-91
2022/10/24 08:23:34;;;;;;;0.10;0.10;;;;;;;;;;6252204;22;20014;-93
2022/10/24 08:26:03;;;;;;;0.20;0.20;;;;;;;;;;6251569;22;20019;-94
2022/10/24 08:28:29;;;;;;;0.10;0.10;;;;;;;;;;6251372;22;20202;-91
2022/10/24 08:30:56;;;;;;;0.10;0.10;;;;;;;;;;6251445;22;20210;-92
2022/10/24 08:33:23;;;;;;;0.10;0.10;;;;;;;;;;6250433;22;20061;-92
2022/10/24 08:35:49;;;;;;;0.10;0.10;;;;;;;;;;6251339;22;20110;-92
2022/10/24 08:38:15;;;;;;;0.10;0.10;;;;;;;;;;6250961;22;20015;-92
2022/10/24 08:40:41;;;;;;;0.20;0.20;;;;;;;;;;6250955;22;20007;-92
2022/10/24 08:43:09;;;;;;;0.10;0.10;;;;;;;;;;6250656;22;20011;-91
2022/10/24 08:45:38;;;;;;;0.10;0.10;;;;;;;;;;6250161;22;20008;-93
2022/10/24 08:48:08;;;;;;;0.10;0.10;;;;;;;;;;6250290;22;20007;-91
2022/10/24 08:50:37;;;;;;;0.10;0.10;;;;;;;;;;6250753;22;20035;-92
2022/10/24 08:53:06;;;;;;;0.10;0.10;;;;;;;;;;6250702;22;20335;-93
2022/10/24 08:55:37;;;;;;;0.10;0.10;;;;;;;;;;6277416;22;20015;-92
2022/10/24 08:58:03;;;;;;;0.10;0.10;;;;;;;;;;6254948;22;20344;-92
2022/10/24 09:00:48;;;;;;;0.10;0.10;;;;;;;;;;6256182;22;20065;-92
2022/10/24 09:03:34;;;;;;;0.10;0.10;;;;;;;;;;6250576;22;20012;-93
2022/10/24 09:06:01;;;;;;;0.20;0.20;;;;;;;;;;6255954;22;20026;-93
2022/10/24 09:08:27;;;;;;;0.10;0.10;;;;;;;;;;6263153;22;20463;-93
2022/10/24 09:11:00;;;;;;;0.20;0.20;;;;;;;;;;6278857;22;20012;-94
2022/10/24 09:13:26;;;;;;;0.10;0.10;;;;;;;;;;6250583;22;20341;-92
2022/10/24 09:15:52;;;;;;;0.20;0.20;;;;;;;;;;6249978;22;20011;-94
2022/10/24 09:18:20;;;;;;;0.10;0.10;;;;;;;;;;6250592;22;20015;-93
2022/10/24 09:20:49;;;;;;;0.10;0.10;;;;;;;;;;6250467;22;20476;-94
2022/10/24 09:23:15;;;;;;;0.10;0.10;;;;;;;;;;6250060;22;20008;-90
2022/10/24 09:25:41;;;;;;;0.10;0.10;;;;;;;;;;6249499;22;20437;-91
2022/10/24 09:28:09;;;;;;;0.20;0.20;;;;;;;;;;6274980;22;20012;-90
2022/10/24 09:30:36;;;;;;;0.10;0.10;;;;;;;;;;6249990;22;20110;-91
2022/10/24 09:33:12;;;;;;;0.10;0.10;;;;;;;;;;6250272;22;20015;-94
2022/10/24 09:35:39;;;;;;;0.10;0.10;;;;;;;;;;6274308;22;20091;-90
2022/10/24 09:38:24;;;;;;;0.20;0.20;;;;;;;;;;6249454;22;20304;-90
2022/10/24 09:40:51;;;;;;;0.10;0.10;;;;;;;;;;6249448;22;20091;-92
2022/10/24 09:43:20;;;;;;;0.10;0.10;;;;;;;;;;6249699;22;20325;-92
2022/10/24 09:45:56;;;;;;;0.10;0.10;;;;;;;;;;6250090;22;20007;-93
2022/10/24 09:48:23;;;;;;;0.10;0.10;;;;;;;;;;6275313;22;20509;-91
2022/10/24 09:51:14;;;;;;;0.10;0.10;;;;;;;;;;6250630;22;20052;-96
2022/10/24 09:54:23;;;;;;;0.10;0.10;;;;;;;;;;6180062;22;20522;-96
2022/10/24 09:59:21;;;;;;;0.10;0.10;;;;;;;;;;6278044;22;20015;-92
2022/10/24 10:02:17;;;;;;;0.10;0.10;;;;;;;;;;6285801;22;20333;-94
2022/10/24 10:04:47;;;;;;;0.10;0.10;;;;;;;;;;6284936;22;20346;-92
2022/10/24 10:07:14;;;;;;;0.10;0.10;;;;;;;;;;6254312;22;20011;-92
2022/10/24 10:09:46;;;;;;;0.15;0.15;;;;;;;;;;6279966;22;20011;-93
2022/10/24 10:12:42;;;;;;;0.10;0.10;;;;;;;;;;6254503;22;20455;-91
2022/10/24 10:15:18;;;;;;;0.20;0.20;;;;;;;;;;6175061;22;20576;-93
2022/10/24 10:17:51;;;;;;;0.10;0.10;;;;;;;;;;6254667;22;20010;-92
2022/10/24 10:20:24;;;;;;;0.10;0.10;;;;;;;;;;6254472;22;20015;-90
2022/10/24 10:22:50;;;;;;;0.10;0.10;;;;;;;;;;6253827;22;20015;-93
2022/10/24 10:25:29;;;;;;;0.10;0.10;;;;;;;;;;6254804;22;20019;-94
2022/10/24 10:27:55;;;;;;;0.10;0.10;;;;;;;;;;6254735;22;20014;-93
2022/10/24 10:30:21;;;;;;;0.10;0.10;;;;;;;;;;6255002;22;20011;-92
2022/10/24 10:33:06;;;;;;;0.10;0.10;;;;;;;;;;6254694;22;20279;-92
2022/10/24 10:35:32;;;;;;;0.10;0.10;;;;;;;;;;6278950;22;20444;-92
2022/10/24 10:38:00;;;;;;;0.10;0.10;;;;;;;;;;6279781;22;20065;-94
2022/10/24 10:40:47;;;;;;;0.10;0.10;;;;;;;;;;6280102;22;20015;-92
2022/10/24 10:43:17;;;;;;;0.10;0.10;;;;;;;;;;6279361;22;20107;-92
2022/10/24 10:45:47;;;;;;;0.10;0.10;;;;;;;;;;6254246;22;20038;-91
2022/10/24 10:48:17;;;;;;;0.10;0.10;;;;;;;;;;6254818;22;20007;-92
2022/10/24 10:51:15;;;;;;;0.10;0.10;;;;;;;;;;6254284;22;20030;-92
2022/10/24 10:54:04;;;;;;;0.10;0.10;;;;;;;;;;6274776;22;20013;-92
2022/10/24 10:56:32;;;;;;;0.10;0.10;;;;;;;;;;6223978;22;20057;-92
2022/10/24 10:59:07;;;;;;;0.10;0.10;;;;;;;;;;6253850;22;20015;-90
2022/10/24 11:01:41;;;;;;;0.10;0.10;;;;;;;;;;6279315;22;20011;-91
2022/10/24 11:04:21;;;;;;;0.20;0.20;;;;;;;;;;6253907;22;20015;-90
2022/10/24 11:07:00;;;;;;;0.10;0.10;;;;;;;;;;6253733;22;20014;-90
2022/10/24 11:09:27;;;;;;;0.10;0.10;;;;;;;;;;6253766;22;20014;-90
2022/10/24 11:11:59;;;;;;;0.10;0.10;;;;;;;;;;6253431;22;20018;-90
2022/10/24 11:14:29;;;;;;;0.10;0.10;;;;;;;;;;6254167;22;20516;-90
2022/10/24 11:16:56;;;;;;;0.10;0.10;;;;;;;;;;6253195;22;20011;-90
2022/10/24 11:19:42;;;;;;;0.10;0.10;;;;;;;;;;6253941;22;20015;-90
2022/10/24 11:22:11;;;;;;;0.10;0.10;;;;;;;;;;6279436;22;20094;-93
2022/10/24 11:24:40;;;;;;;0.10;0.10;;;;;;;;;;6280189;22;20011;-93
2022/10/24 11:27:08;;;;;;;0.10;0.10;;;;;;;;;;6254624;22;20094;-92
2022/10/24 11:29:37;;;;;;;0.10;0.10;;;;;;;;;;6254309;22;20013;-93
2022/10/24 11:32:08;;;;;;;0.10;0.10;;;;;;;;;;6280279;22;20091;-93
2022/10/24 11:34:55;;;;;;;0.10;0.10;;;;;;;;;;6254952;22;20015;-92
2022/10/24 11:37:24;;;;;;;0.10;0.10;;;;;;;;;;6217995;22;20057;-91
2022/10/24 11:40:08;;;;;;;0.10;0.10;;;;;;;;;;6255143;22;20049;-91
2022/10/24 11:42:53;;;;;;;0.10;0.10;;;;;;;;;;6280703;22;20019;-90
2022/10/24 11:45:20;;;;;;;0.20;0.20;;;;;;;;;;6280489;22;20007;-90
2022/10/24 11:47:49;;;;;;;0.10;0.10;;;;;;;;;;6255605;22;20026;-89
2022/10/24 11:50:32;;;;;;;0.10;0.10;;;;;;;;;;6280589;22;20011;-89
2022/10/24 11:53:01;;;;;;;0.10;0.10;;;;;;;;;;6280225;22;20038;-90
2022/10/24 11:55:30;;;;;;;0.10;0.10;;;;;;;;;;6280963;22;20023;-91
2022/10/24 11:57:59;;;;;;;0.15;0.15;;;;;;;;;;6281517;22;20011;-90
2022/10/24 12:00:29;;;;;;;0.40;0.40;;;;;;;;;;6255373;22;20445;-90
2022/10/24 12:03:14;;;;;;;0.10;0.10;;;;;;;;;;6255787;22;20011;-92
2022/10/24 12:05:53;;;;;;;0.10;0.10;;;;;;;;;;6305510;22;20336;-92
2022/10/24 12:08:41;;;;;;;0.10;0.10;;;;;;;;;;6280592;22;20452;-92
2022/10/24 12:11:11;;;;;;;0.10;0.10;;;;;;;;;;6255944;22;20077;-93
2022/10/24 12:13:39;;;;;;;0.10;0.10;;;;;;;;;;6281033;22;20012;-93
2022/10/24 12:16:11;;;;;;;0.10;0.10;;;;;;;;;;6281711;22;20441;-95
2022/10/24 12:18:41;;;;;;;0.10;0.10;;;;;;;;;;6255499;22;20015;-91
2022/10/24 12:21:08;;;;;;;0.10;0.10;;;;;;;;;;6281039;22;20025;-91
2022/10/24 12:23:34;;;;;;;0.10;0.10;;;;;;;;;;6254840;22;20504;-91
2022/10/24 12:26:19;;;;;;;0.10;0.10;;;;;;;;;;6254885;22;20011;-91
2022/10/24 12:28:56;;;;;;;0.10;0.10;;;;;;;;;;6254949;22;20333;-91
2022/10/24 12:31:23;;;;;;;0.10;0.10;;;;;;;;;;6255271;22;20073;-91
2022/10/24 12:34:08;;;;;;;0.10;0.10;;;;;;;;;;6255535;22;20090;-91
2022/10/24 12:36:56;;;;;;;0.10;0.10;;;;;;;;;;6281171;22;20434;-91
2022/10/24 12:39:32;;;;;;;0.43;0.20;;;;;;;;;;6279906;22;20474;-91
2022/10/24 12:41:59;;;;;;;0.10;0.10;;;;;;;;;;6254744;22;20483;-91
2022/10/24 12:44:34;;;;;;;0.10;0.10;;;;;;;;;;6280316;22;20011;-90
2022/10/24 12:47:18;;;;;;;0.10;0.10;;;;;;;;;;6280105;22;20455;-92
2022/10/24 12:49:44;;;;;;;0.10;0.10;;;;;;;;;;6305081;22;20011;-92
2022/10/24 12:52:29;;;;;;;0.10;0.10;;;;;;;;;;6255454;22;20018;-91
2022/10/24 12:54:55;;;;;;;0.10;0.10;;;;;;;;;;6280278;22;20018;-91
2022/10/24 12:57:23;;;;;;;0.20;0.20;;;;;;;;;;6260558;22;20015;-91
2022/10/24 12:59:50;;;;;;;0.10;0.10;;;;;;;;;;6262548;22;20012;-91
2022/10/24 13:02:19;;;;;;;0.10;0.10;;;;;;;;;;6259705;22;20481;-90
2022/10/24 13:04:48;;;;;;;0.10;0.10;;;;;;;;;;6280567;22;20113;-92
2022/10/24 13:07:29;;;;;;;0.10;0.10;;;;;;;;;;6289709;22;20127;-91
2022/10/24 13:09:58;;;;;;;0.10;0.10;;;;;;;;;;6299382;22;20018;-93
2022/10/24 13:12:39;;;;;;;0.10;0.10;;;;;;;;;;6280851;22;20341;-94
2022/10/24 13:15:15;;;;;;;0.20;0.20;;;;;;;;;;6256324;22;20011;-93
2022/10/24 13:17:43;;;;;;;0.10;0.10;;;;;;;;;;6255990;22;20015;-93
2022/10/24 13:20:16;;;;;;;0.10;0.10;;;;;;;;;;6255964;22;20415;-94
2022/10/24 13:22:42;;;;;;;0.20;0.20;;;;;;;;;;6280493;22;20015;-91
2022/10/24 13:25:32;;;;;;;0.40;0.40;;;;;;;;;;6255064;22;20471;-94
2022/10/24 13:28:18;;;;;;;0.10;0.10;;;;;;;;;;6272914;22;20023;-95
2022/10/24 13:30:45;;;;;;;0.15;0.15;;;;;;;;;;6306667;22;20019;-93
2022/10/24 13:33:30;;;;;;;0.10;0.10;;;;;;;;;;6255352;22;20090;-92
2022/10/24 13:36:00;;;;;;;0.13;0.13;;;;;;;;;;6279903;22;20379;-93
2022/10/24 13:38:26;;;;;;;0.10;0.10;;;;;;;;;;6225102;22;20011;-91
2022/10/24 13:40:51;;;;;;;0.10;0.10;;;;;;;;;;6224487;22;20015;-91
2022/10/24 13:43:20;;;;;;;0.13;0.13;;;;;;;;;;6224470;22;20540;-92
2022/10/24 13:45:58;;;;;;;0.10;0.10;;;;;;;;;;6224718;22;20110;-93
2022/10/24 13:48:25;;;;;;;0.10;0.10;;;;;;;;;;6249644;22;20050;-94
2022/10/24 13:51:10;;;;;;;0.10;0.10;;;;;;;;;;6225107;22;20039;-95
2022/10/24 13:53:49;;;;;;;0.10;0.10;;;;;;;;;;6249921;22;20488;-96
2022/10/24 13:56:15;;;;;;;0.10;0.10;;;;;;;;;;6225004;22;20059;-93
2022/10/24 13:58:43;;;;;;;0.10;0.10;;;;;;;;;;6224642;22;20008;-92
2022/10/24 14:01:19;;;;;;;0.10;0.10;;;;;;;;;;6223777;22;20411;-92
2022/10/24 14:03:45;;;;;;;0.10;0.10;;;;;;;;;;6249311;22;20453;-93
2022/10/24 14:06:11;;;;;;;0.10;0.10;;;;;;;;;;6223975;22;20015;-92
2022/10/24 14:08:38;;;;;;;0.10;0.10;;;;;;;;;;6224292;22;20007;-92
2022/10/24 14:11:05;;;;;;;0.10;0.10;;;;;;;;;;6249400;22;20066;-92
2022/10/24 14:13:31;;;;;;;0.10;0.10;;;;;;;;;;6224059;22;20019;-92
2022/10/24 14:15:58;;;;;;;0.10;0.10;;;;;;;;;;6223802;22;20019;-93
2022/10/24 14:18:26;;;;;;;0.28;0.28;;;;;;;;;;6224375;22;20043;-94
2022/10/24 14:20:56;;;;;;;0.10;0.10;;;;;;;;;;6224289;22;20012;-93
2022/10/24 14:23:23;;;;;;;0.50;0.50;;;;;;;;;;6224543;22;20012;-95
2022/10/24 14:25:54;;;;;;;0.10;0.10;;;;;;;;;;6224665;22;20012;-94
2022/10/24 14:28:23;;;;;;;0.10;0.10;;;;;;;;;;6223376;22;20022;-93
2022/10/24 14:30:58;;;;;;;0.10;0.10;;;;;;;;;;6225747;22;20047;-93
2022/10/24 14:33:26;;;;;;;0.10;0.10;;;;;;;;;;6228802;22;20142;-94
2022/10/24 14:35:52;;;;;;;0.20;0.20;;;;;;;;;;6223603;22;20012;-90
2022/10/24 14:38:18;;;;;;;0.10;0.10;;;;;;;;;;6223500;22;20019;-90
2022/10/24 14:40:44;;;;;;;0.10;0.10;;;;;;;;;;6223595;22;20012;-93
2022/10/24 14:43:21;;;;;;;0.13;0.13;;;;;;;;;;6223819;22;20103;-94
2022/10/24 14:46:02;;;;;;;0.10;0.10;;;;;;;;;;6249804;22;20356;-94
2022/10/24 14:48:28;;;;;;;0.20;0.20;;;;;;;;;;6251501;22;20523;-93
2022/10/24 14:51:00;;;;;;;0.10;0.10;;;;;;;;;;6226887;22;20433;-92
2022/10/24 14:53:27;;;;;;;0.10;0.10;;;;;;;;;;6227106;22;20023;-92
2022/10/24 14:55:53;;;;;;;0.10;0.10;;;;;;;;;;6249849;22;20083;-93
2022/10/24 14:58:23;;;;;;;0.10;0.10;;;;;;;;;;6224291;22;20047;-93
2022/10/24 15:03:58;;;;;;;0.30;0.30;;;;;;;;;;6261528;22;20020;-94
2022/10/24 15:07:21;;;;;;;;;;;;;;;;;;;;;
2022/10/24 15:10:17;;;;;;;0.10;0.10;;;;;;;;;;6192156;22;20020;-93
2022/10/24 15:21:26;;;;;;;1.17;1.08;;;;;;;;;;6246688;22;20020;-92
2022/10/24 15:23:57;;;;;;;0.10;0.10;;;;;;;;;;6168514;23;20035;-90
2022/10/24 15:26:31;;;;;;;0.15;0.15;;;;;;;;;;6164645;23;20013;-91
2022/10/24 15:29:13;;;;;;;0.20;0.20;;;;;;;;;;6163619;23;20013;-92
2022/10/24 15:31:40;;;;;;;0.20;0.20;;;;;;;;;;6163514;23;20044;-91